• Join FlightAware (Why Join?)
  • Login
  • US Flag 
02:18PM EDT


 

Airport Tracker/Info


-or-


 

Live Flight TrackerFlight Track Log ✈ UAL4115 ✈ 27-Jul-2013 ✈ MMGL / GDL - KIAH

Flight Track Log - Related Links

Times and Time Zones

All times are in EDT time to prevent confusion due to time zone crossing. See the UAL4115 flight status page for this flight to view local times or setup timezone preferences in your user account.

Time Position Orientation Groundspeed Altitude Reporting Facility
EDT Latitude Longitude Course Direction KTS MPH feet Rate Location/Type
07:38AM 20.8542 -103.2208 17° North  Level FlightAware Approximate
07:39AM 20.9416 -103.1945 12° North  Level FlightAware Approximate
07:40AM 21.0305 -103.1747 12° North  Level FlightAware Approximate
07:41AM 21.1182 -103.1495 16° North  Level FlightAware Approximate
07:42AM 21.2055 -103.1227 16° North  Level FlightAware Approximate
07:43AM 21.2929 -103.0958 16° North  Level FlightAware Approximate
07:44AM 21.3808 -103.0715 13° North  Level FlightAware Approximate
07:45AM 21.4693 -103.0493 13° North  Level FlightAware Approximate
07:46AM 21.5577 -103.0267 14° North  Level FlightAware Approximate
07:47AM 21.6458 -103.0027 14° North  Level FlightAware Approximate
07:48AM 21.7342 -102.9802 10° North  Level FlightAware Approximate
07:49AM 21.8237 -102.9639 10° North  Level FlightAware Approximate
07:50AM 21.9123 -102.9439 25° Northeast  Level FlightAware Approximate
07:51AM 21.9987 -102.9147 15° North  Level FlightAware Approximate
07:52AM 22.0866 -102.8896 15° North  Level FlightAware Approximate
07:53AM 22.1745 -102.8651 10° North  Level FlightAware Approximate
07:54AM 22.2635 -102.8455 17° North  Level FlightAware Approximate
07:55AM 22.3520 -102.8247 North  Level FlightAware Approximate
07:56AM 22.4409 -102.8047 15° North  Level FlightAware Approximate
07:57AM 22.5285 -102.7789 15° North  Level FlightAware Approximate
07:58AM 22.6162 -102.7531 15° North  Level FlightAware Approximate
07:59AM 22.7040 -102.7274 15° North  Level FlightAware Approximate
08:00AM 22.7918 -102.7023 15° North  Level FlightAware Approximate
08:01AM 22.8810 -102.6838 10° North  Level FlightAware Approximate
08:02AM 22.9591 -102.6337 31° Northeast  Level FlightAware Approximate
08:03AM 23.0369 -102.5826 31° Northeast  Level FlightAware Approximate
08:04AM 23.1147 -102.5315 31° Northeast  Level FlightAware Approximate
08:05AM 23.1924 -102.4804 31° Northeast  Level FlightAware Approximate
08:06AM 23.2701 -102.4292 31° Northeast  Level FlightAware Approximate
08:07AM 23.3478 -102.3779 31° Northeast  Level FlightAware Approximate
08:08AM 23.4255 -102.3266 31° Northeast  Level FlightAware Approximate
08:09AM 23.5032 -102.2752 31° Northeast  Level FlightAware Approximate
08:10AM 23.5809 -102.2237 31° Northeast  Level FlightAware Approximate
08:11AM 23.6596 -102.1743 29° Northeast  Level FlightAware Approximate
08:12AM 23.7392 -102.1265 29° Northeast  Level FlightAware Approximate
08:13AM 23.8181 -102.0773 31° Northeast  Level FlightAware Approximate
08:14AM 23.8961 -102.0263 31° Northeast  Level FlightAware Approximate
08:15AM 23.9741 -101.9752 31° Northeast  Level FlightAware Approximate
08:16AM 24.0520 -101.9241 31° Northeast  Level FlightAware Approximate
08:17AM 24.1299 -101.8729 31° Northeast  Level FlightAware Approximate
08:18AM 24.2078 -101.8217 31° Northeast  Level FlightAware Approximate
08:19AM 24.2857 -101.7704 31° Northeast  Level FlightAware Approximate
08:20AM 24.3629 -101.7177 32° Northeast  Level FlightAware Approximate
08:21AM 24.4395 -101.6641 33° Northeast  Level FlightAware Approximate
08:22AM 24.5164 -101.6110 32° Northeast  Level FlightAware Approximate
08:23AM 24.5938 -101.5586 32° Northeast  Level FlightAware Approximate
08:24AM 24.6712 -101.5062 32° Northeast  Level FlightAware Approximate
08:25AM 24.7485 -101.4537 32° Northeast  Level FlightAware Approximate
08:26AM 24.8258 -101.4011 32° Northeast  Level FlightAware Approximate
08:27AM 24.9032 -101.3485 32° Northeast  Level FlightAware Approximate
08:28AM 24.9804 -101.2958 32° Northeast  Level FlightAware Approximate
08:29AM 25.0577 -101.2431 32° Northeast  Level FlightAware Approximate
08:30AM 25.1350 -101.1903 32° Northeast  Level FlightAware Approximate
08:30AM 25.6019 -100.0311 32° Northeast 431 496 37,000  Level Houston Center
08:31AM 25.2122 -101.1374 32° Northeast  Level FlightAware Approximate
08:31AM 25.6958 -99.9475 39° Northeast 431 496 37,000  Level Houston Center
08:32AM 25.2894 -101.0844 32° Northeast  Level FlightAware Approximate
08:32AM 25.7886 -99.8658 38° Northeast 430 495 37,000  Level Houston Center
08:33AM 25.3666 -101.0314 32° Northeast  Level FlightAware Approximate
08:33AM 25.8828 -99.7839 38° Northeast 430 495 37,000  Level Houston Center
08:34AM 25.4438 -100.9783 32° Northeast  Level FlightAware Approximate
08:34AM 25.9950 -99.6856 38° Northeast 429 494 37,000  Level Houston Center
08:35AM 25.5210 -100.9252 32° Northeast  Level FlightAware Approximate
08:35AM 26.0886 -99.6042 38° Northeast 428 493 37,000  Level Houston Center
08:36AM 26.1806 -99.5206 39° Northeast 428 493 37,000  Level Houston Center
08:37AM 26.2725 -99.4375 39° Northeast 427 491 37,000  Level Houston Center
08:38AM 26.3631 -99.3503 41° Northeast 428 493 37,000  Level Houston Center
08:39AM 26.4525 -99.2625 41° Northeast 430 495 37,000  Level Houston Center
08:40AM 26.5428 -99.1778 40° Northeast 426 490 37,000  Level Houston Center
08:41AM 26.6314 -99.0908 41° Northeast 426 490 37,000  Level Houston Center
08:42AM 26.7381 -98.9875 41° Northeast 423 487 37,000  Level Houston Center
08:43AM 26.8267 -98.9006 41° Northeast 425 489 37,000  Level Houston Center
08:44AM 26.9164 -98.8150 40° Northeast 426 490 37,000  Level Houston Center
08:45AM 27.0047 -98.7283 41° Northeast 425 489 37,000  Level Houston Center
08:46AM 27.0933 -98.6411 41° Northeast 426 490 37,000  Level Houston Center
08:47AM 27.1808 -98.5536 42° Northeast 425 489 37,000 -60 Level Houston Center
08:48AM 27.2694 -98.4675 41° Northeast 425 489 36,900  Descending Houston Center
08:49AM 27.3758 -98.3631 41° Northeast 425 489 37,000  Climbing Houston Center
08:50AM 27.4642 -98.2753 41° Northeast 426 490 37,000  Level Houston Center
08:51AM 27.5547 -98.1881 40° Northeast 428 493 37,000  Level Houston Center
08:52AM 27.6433 -98.0989 42° Northeast 429 494 37,000  Level Houston Center
08:53AM 27.7333 -98.0083 42° Northeast 434 499 37,000  Level Houston Center
08:55AM 27.8239 -97.9203 41° Northeast 432 497 37,000  Level Houston Center
08:56AM 27.9133 -97.8300 42° Northeast 433 498 37,000  Level Houston Center
08:57AM 28.0194 -97.7250 41° Northeast 431 496 37,000  Level Houston Center
08:58AM 28.1100 -97.6353 41° Northeast 433 498 37,000  Level Houston Center
08:59AM 28.1994 -97.5447 42° Northeast 432 497 37,000  Level Houston Center
09:00AM 28.2894 -97.4542 42° Northeast 433 498 37,000  Level Houston Center
09:01AM 28.3786 -97.3636 42° Northeast 431 496 37,000  Level Houston Center
09:02AM 28.4692 -97.2731 41° Northeast 432 497 37,000  Level Houston Center
09:03AM 28.5589 -97.1811 42° Northeast 435 501 37,000 -900 Level Houston Center
09:04AM 28.6478 -97.0911 42° Northeast 431 496 35,200 -2,400 Descending Houston Center
09:05AM 28.7586 -96.9792 42° Northeast 442 509 32,100 -2,760 Descending Houston Center
09:06AM 28.8517 -96.8825 42° Northeast 453 521 29,600 -2,460 Descending Houston Center
09:07AM 28.9467 -96.7858 42° Northeast 460 529 27,100 -2,460 Descending Houston Center
09:08AM 29.0414 -96.6889 42° Northeast 461 531 24,600 -2,460 Descending Houston Center
09:09AM 29.1331 -96.5956 42° Northeast 450 518 22,100 -2,460 Descending Houston Center
09:10AM 29.2206 -96.5053 42° Northeast 431 496 19,600 -2,640 Descending Houston Center
09:11AM 29.3247 -96.3981 42° Northeast 425 489 16,700 -2,700 Descending Houston Center
09:12AM 29.4058 -96.3125 43° Northeast 403 464 14,100 -2,220 Descending Houston Center
09:13AM 29.4828 -96.2325 42° Northeast 380 437 12,200 -1,080 Descending Houston Center
09:14AM 29.5506 -96.1583 44° Northeast 344 396 11,900 -180 Descending Houston Center
09:15AM 29.5997 -96.0608 60° Northeast 355 409 11,900 -600 Level Houston Center
09:16AM 29.6456 -95.9694 60° Northeast 349 402 10,700 -1,200 Descending Houston Center
09:17AM 29.6897 -95.8819 60° Northeast 321 369 9,500 -1,800 Descending Houston Center
09:18AM 29.7378 -95.7856 60° Northeast 293 337 7,100 -1,740 Descending Houston Center
09:19AM 29.7769 -95.7056 61° Northeast 288 331 6,000 -600 Descending Houston Center
09:20AM 29.8178 -95.6267 59° Northeast 287 330 6,000  Level Houston Center
09:21AM 29.8575 -95.5475 60° Northeast 285 328 6,000  Level Houston Center
09:22AM 29.8956 -95.4653 62° Northeast 289 333 6,000  Level Houston Center
09:23AM 29.8967 -95.3697 89° East 297 342 6,000  Level Houston Center
09:24AM 29.8967 -95.2731 90° East 299 344 6,000 -600 Level Houston Center
09:25AM 29.8967 -95.1786 90° East 295 339 4,800 -1,860 Descending Houston Center
09:26AM 29.9500 -95.1269 40° Northeast 290 334 2,200 -1,380 Descending Houston Center
09:27AM 29.9769 -95.1814 300° West 252 290 2,000 -660 Descending Houston Center
09:28AM 29.9783 -95.2550 271° West 212 244 900 -900 Descending Houston Center
09:29AM 29.9781 -95.2981 270° West 167 192 200 -720 Descending Houston Center